If you wish to contribute or participate in the discussions about articles you are invited to join SKYbrary as a registered user

 Actions

Abu Musa Airport

From SKYbrary Wiki

OIBA
Airport
ICAO: OIBA – IATA: AEU
Summary
Name Abu Musa Airport
Region Asia and Pacific
Territory Iran IR.gif
Location Abu Musa Island, Hormozgan
Serving Abu Musa
Elevation 7.01 m23 ft7.01 m
Coordinates 25° 52' 33.4236", 55° 1' 57.8352"
Close to Persian Gulf
Runways
Designator Length Width Surface ROPS
8/26 2986 m9,796.588 ft 45 m147.638 ft ASP /
METAR
Observation OIBA 111400Z 30010KT CAVOK 24/14 Q1016
Station Abumusa Island / Abumusa
Date/Time 11 December 2017 14:00:00
Wind direction 300°
Wind speed 10 kts
Lowest cloud amount clouds and visibility OK
Temperature 24°C
Dew point 14°C
Humidity 53%
QNH 1016 hPa
Weather condition n/a

Abu Musa Airport or Abumusa Airport is an airport serving Abu Musa Island, in the Hormozgan Province in Iran.

Maps

Terrain

Loading map...

Airport Layout

Loading map...


Accidents & Serious Incidents at or in vicinity of OIBA

None on SKYbrary